Time;durP1;ratioP1;P1;durP2;ratioP2;P2;SDS_P1;SDS_P2;PMS_P1;PMS_P2;Temp;Humidity;BMP_temperature;BMP_pressure;BME280_temperature;BME280_humidity;BME280_pressure;Samples;Min_cycle;Max_cycle;Signal;HPM_P1;HPM_P2
2021/11/03 00:02:20;;;;;;;9.95;5.60;;;;;;;9.10;89.95;97464.13;5056174;28;20657;-62
2021/11/03 00:04:45;;;;;;;8.95;5.53;;;;;;;9.30;89.55;97490.53;5052592;28;20762;-62
2021/11/03 00:07:11;;;;;;;8.73;6.03;;;;;;;9.37;89.06;97486.31;5041737;28;20024;-61
2021/11/03 00:09:38;;;;;;;9.82;6.38;;;;;;;9.39;89.13;97486.16;5058594;28;20024;-60
2021/11/03 00:12:14;;;;;;;11.13;6.00;;;;;;;9.29;89.48;97482.91;5045340;28;20070;-61
2021/11/03 00:14:40;;;;;;;11.15;7.05;;;;;;;9.38;89.57;97497.47;5048643;28;20060;-60
2021/11/03 00:17:06;;;;;;;9.77;6.50;;;;;;;9.39;88.87;97492.13;5042786;28;20099;-61
2021/11/03 00:19:32;;;;;;;10.70;6.40;;;;;;;9.39;88.90;97494.72;5051118;28;20021;-60
2021/11/03 00:21:57;;;;;;;9.95;6.57;;;;;;;9.30;89.14;97492.31;5047565;28;20071;-61
2021/11/03 00:24:23;;;;;;;10.07;6.38;;;;;;;9.35;89.96;97487.44;5053180;28;20029;-63
2021/11/03 00:26:48;;;;;;;10.32;6.13;;;;;;;9.25;90.54;97482.41;5058316;28;20186;-62
2021/11/03 00:29:13;;;;;;;9.43;6.30;;;;;;;9.13;90.03;97452.63;5049994;28;20029;-61
2021/11/03 00:31:39;;;;;;;10.30;6.28;;;;;;;9.38;90.15;97482.75;5035804;28;20425;-63
2021/11/03 00:34:04;;;;;;;10.13;5.85;;;;;;;9.46;89.85;97481.91;5053117;28;20036;-63
2021/11/03 00:36:30;;;;;;;10.23;6.38;;;;;;;9.12;90.05;97430.25;5054323;28;20383;-60
2021/11/03 00:38:55;;;;;;;10.05;6.28;;;;;;;9.40;90.83;97478.19;5052759;28;20036;-59
2021/11/03 00:41:20;;;;;;;10.02;6.50;;;;;;;9.46;90.81;97484.50;5057935;28;20076;-62
2021/11/03 00:43:46;;;;;;;9.52;6.32;;;;;;;9.43;90.57;97490.03;5033355;28;20032;-62
2021/11/03 00:46:11;;;;;;;8.93;5.68;;;;;;;9.24;90.90;97454.88;5055156;28;20076;-61
2021/11/03 00:48:37;;;;;;;10.30;5.70;;;;;;;9.41;90.40;97487.59;5051335;28;20365;-59
2021/11/03 00:51:03;;;;;;;9.38;6.00;;;;;;;9.42;89.58;97491.81;5052408;28;20515;-59
2021/11/03 00:53:28;;;;;;;9.13;5.55;;;;;;;9.12;89.06;97443.22;5059176;28;20090;-62
2021/11/03 00:55:54;;;;;;;9.35;5.72;;;;;;;9.47;89.50;97487.91;5035483;28;20036;-61
2021/11/03 00:58:19;;;;;;;9.52;5.80;;;;;;;9.17;88.69;97431.38;5042439;28;20659;-59
2021/11/03 01:00:45;;;;;;;8.00;5.03;;;;;;;9.30;88.20;97472.38;5049625;28;20440;-60
2021/11/03 01:03:10;;;;;;;8.95;5.63;;;;;;;9.43;88.60;97472.66;5038271;28;20248;-60
2021/11/03 01:05:38;;;;;;;11.05;5.50;;;;;;;9.45;87.84;97471.69;5054240;28;20035;-62
2021/11/03 01:08:08;;;;;;;8.43;5.32;;;;;;;9.41;87.02;97458.25;5050773;28;20658;-60
2021/11/03 01:10:35;;;;;;;9.32;5.53;;;;;;;9.37;87.29;97468.16;5038003;28;20060;-61
2021/11/03 01:13:00;;;;;;;9.82;5.88;;;;;;;9.38;87.84;97469.78;5053292;28;20058;-59
2021/11/03 01:15:26;;;;;;;9.30;5.07;;;;;;;9.45;88.08;97474.28;5054075;28;20036;-60
2021/11/03 01:17:55;;;;;;;9.48;5.35;;;;;;;9.21;88.31;97431.84;5043390;28;20028;-60
2021/11/03 01:20:20;;;;;;;9.27;6.00;;;;;;;9.47;88.76;97474.94;5056142;28;20033;-60
2021/11/03 01:22:46;;;;;;;8.52;5.70;;;;;;;8.78;89.31;97358.66;5051412;28;20376;-60
2021/11/03 01:25:13;;;;;;;9.20;6.28;;;;;;;9.22;90.37;97436.88;5061599;28;20040;-61
2021/11/03 01:27:39;;;;;;;10.88;5.63;;;;;;;9.40;90.36;97462.63;5047802;28;20746;-60
2021/11/03 01:30:06;;;;;;;8.98;5.68;;;;;;;9.34;90.30;97460.69;5059760;28;20099;-60
2021/11/03 01:32:31;;;;;;;9.05;5.60;;;;;;;9.49;89.92;97463.44;5047708;28;20021;-62
2021/11/03 01:34:57;;;;;;;10.20;5.57;;;;;;;9.42;90.16;97460.69;5051878;28;20573;-61
2021/11/03 01:37:22;;;;;;;9.55;6.15;;;;;;;9.34;90.56;97455.50;5053821;28;20060;-60
2021/11/03 01:39:48;;;;;;;13.23;6.30;;;;;;;9.36;91.00;97457.94;5039215;28;20059;-62
2021/11/03 01:42:13;;;;;;;10.98;6.18;;;;;;;9.40;91.03;97449.66;5049019;28;20071;-60
2021/11/03 01:44:38;;;;;;;10.23;6.38;;;;;;;9.20;90.66;97423.28;5055559;28;20090;-62
2021/11/03 01:47:39;;;;;;;10.05;6.45;;;;;;;9.36;90.24;97447.56;5057039;28;20394;-60
2021/11/03 01:50:08;;;;;;;10.88;6.55;;;;;;;9.07;90.13;97385.84;5040386;28;20118;-60
2021/11/03 01:52:34;;;;;;;10.25;6.00;;;;;;;9.39;89.92;97431.66;5054749;28;20116;-58
2021/11/03 01:54:59;;;;;;;10.80;6.40;;;;;;;9.12;89.76;97394.75;5055195;28;20111;-60
2021/11/03 01:57:32;;;;;;;10.13;7.07;;;;;;;9.26;89.53;97403.66;5056124;28;20450;-60
2021/11/03 02:00:04;;;;;;;9.48;5.97;;;;;;;9.34;89.90;97428.75;5051490;28;20044;-60
2021/11/03 02:02:31;;;;;;;11.55;6.57;;;;;;;9.31;90.05;97427.31;5053741;28;20040;-59
2021/11/03 02:04:57;;;;;;;11.30;6.30;;;;;;;9.29;90.14;97421.47;5050924;28;20099;-63
2021/11/03 02:07:25;;;;;;;11.52;6.68;;;;;;;9.15;89.54;97402.22;5038477;28;20039;-61
2021/11/03 02:09:51;;;;;;;9.95;6.05;;;;;;;9.03;89.21;97369.81;5034612;28;20035;-59
2021/11/03 02:12:19;;;;;;;9.48;6.28;;;;;;;9.19;89.12;97397.50;5045016;28;20108;-59
2021/11/03 02:14:45;;;;;;;10.65;6.10;;;;;;;9.26;88.53;97402.84;5058160;28;20025;-61
2021/11/03 02:17:11;;;;;;;11.00;6.13;;;;;;;9.30;88.45;97402.34;5055212;28;20028;-60
2021/11/03 02:19:36;;;;;;;10.40;5.82;;;;;;;9.31;87.55;97397.94;5039070;28;20021;-60
2021/11/03 02:22:16;;;;;;;11.20;6.25;;;;;;;9.17;89.04;97389.06;5054788;28;20405;-62
2021/11/03 02:24:44;;;;;;;;;;;;;;;9.21;88.24;97393.75;5049780;28;20060;-60
2021/11/03 02:27:11;;;;;;;8.93;5.80;;;;;;;8.98;88.71;97341.81;5055356;28;19931;-61
2021/11/03 02:29:37;;;;;;;9.68;5.45;;;;;;;9.34;87.49;97389.84;5054100;28;20476;-60
2021/11/03 02:32:32;;;;;;;8.38;5.40;;;;;;;9.42;87.76;97392.41;5050799;28;20035;-60
2021/11/03 02:34:58;;;;;;;8.75;5.25;;;;;;;9.40;87.85;97395.19;5039077;28;20129;-59
2021/11/03 02:37:26;;;;;;;10.35;5.78;;;;;;;9.46;88.52;97398.09;5047913;28;20045;-60
2021/11/03 02:39:56;;;;;;;11.15;5.90;;;;;;;9.42;88.78;97397.63;5046763;28;20140;-62
2021/11/03 02:42:24;;;;;;;9.35;5.55;;;;;;;9.41;89.10;97388.19;5045478;28;20024;-60
2021/11/03 02:44:51;;;;;;;10.43;6.30;;;;;;;9.42;89.64;97382.84;5053047;28;20028;-59
2021/11/03 02:47:17;;;;;;;8.77;5.38;;;;;;;9.20;89.04;97340.28;5050217;28;20032;-60
2021/11/03 02:49:42;;;;;;;10.55;5.63;;;;;;;9.44;89.02;97369.72;5033983;28;20043;-60
2021/11/03 02:52:18;;;;;;;8.50;4.63;;;;;;;9.43;86.59;97355.91;5057654;28;20031;-59
2021/11/03 02:54:43;;;;;;;8.43;5.20;;;;;;;9.38;85.60;97342.66;5050287;28;20814;-60
2021/11/03 02:57:08;;;;;;;8.90;5.40;;;;;;;9.46;85.36;97349.59;5042736;28;20025;-59
2021/11/03 02:59:34;;;;;;;8.52;5.40;;;;;;;9.43;85.22;97347.31;5038640;28;20391;-60
2021/11/03 03:02:01;;;;;;;7.63;4.40;;;;;;;9.49;84.67;97343.25;5057993;28;20436;-59
2021/11/03 03:04:29;;;;;;;9.00;4.57;;;;;;;9.47;84.39;97334.81;5053248;28;20473;-60
2021/11/03 03:06:55;;;;;;;7.53;4.72;;;;;;;9.42;84.33;97333.56;5058819;28;20028;-61
2021/11/03 03:09:21;;;;;;;8.85;5.43;;;;;;;9.42;84.58;97324.97;5053121;28;20036;-59
2021/11/03 03:11:50;;;;;;;7.80;4.63;;;;;;;9.42;84.80;97319.78;5049401;28;20025;-59
2021/11/03 03:14:18;;;;;;;9.13;5.15;;;;;;;9.47;84.99;97306.28;5051123;28;20051;-62
2021/11/03 03:16:43;;;;;;;9.40;4.80;;;;;;;9.46;85.09;97304.69;5058313;28;20021;-61
2021/11/03 03:19:10;;;;;;;8.65;4.75;;;;;;;9.45;85.23;97316.03;5059489;28;20930;-61
2021/11/03 03:21:35;;;;;;;9.18;5.32;;;;;;;9.37;85.53;97317.69;5059691;28;20380;-62
2021/11/03 03:24:03;;;;;;;8.70;4.97;;;;;;;9.21;85.25;97277.03;5055831;28;20059;-60
2021/11/03 03:26:29;;;;;;;7.97;4.85;;;;;;;9.12;85.48;97259.09;5049410;28;20032;-61
2021/11/03 03:28:55;;;;;;;9.18;4.60;;;;;;;9.30;85.97;97288.19;5057611;28;20025;-61
2021/11/03 03:31:21;;;;;;;8.50;5.18;;;;;;;9.41;86.07;97303.38;5044766;28;20491;-62
2021/11/03 03:33:48;;;;;;;8.07;5.03;;;;;;;9.49;86.33;97307.75;5054967;28;20540;-60
2021/11/03 03:36:14;;;;;;;8.77;4.70;;;;;;;9.47;87.50;97304.50;5042763;28;20082;-59
2021/11/03 03:38:40;;;;;;;7.75;4.63;;;;;;;9.36;86.43;97286.72;5042005;28;20051;-63
2021/11/03 03:41:06;;;;;;;9.98;4.72;;;;;;;9.36;86.51;97292.72;5055218;28;20025;-60
2021/11/03 03:43:31;;;;;;;7.38;4.47;;;;;;;9.03;85.28;97255.72;5059723;28;20194;-61
2021/11/03 03:45:57;;;;;;;6.90;4.13;;;;;;;9.34;84.24;97289.47;5050219;28;20036;-60
2021/11/03 03:48:22;;;;;;;8.75;4.35;;;;;;;9.15;83.95;97251.78;5055305;28;20024;-61
2021/11/03 03:50:47;;;;;;;7.28;3.97;;;;;;;9.48;84.08;97298.34;5057632;28;20033;-61
2021/11/03 03:53:13;;;;;;;6.72;4.30;;;;;;;9.43;84.29;97298.81;5050971;28;20527;-61
2021/11/03 03:55:39;;;;;;;7.43;3.92;;;;;;;9.40;83.82;97281.03;5049658;28;20498;-61
2021/11/03 03:58:05;;;;;;;8.30;4.38;;;;;;;9.41;84.18;97293.00;5049080;28;20040;-60
2021/11/03 04:00:31;;;;;;;9.00;4.80;;;;;;;9.31;84.65;97282.03;5047963;28;20070;-60
2021/11/03 04:02:57;;;;;;;9.93;4.43;;;;;;;9.37;84.28;97289.13;5046782;28;20032;-61
2021/11/03 04:05:23;;;;;;;8.55;4.55;;;;;;;9.29;84.60;97304.75;5054346;28;20048;-60
2021/11/03 04:07:49;;;;;;;8.43;4.63;;;;;;;9.39;83.04;97307.94;5056612;28;20166;-62
2021/11/03 04:10:15;;;;;;;7.25;3.80;;;;;;;9.49;81.33;97306.91;5060900;28;20028;-60
2021/11/03 04:12:41;;;;;;;7.85;4.07;;;;;;;9.45;82.58;97295.28;5058136;28;20020;-62
2021/11/03 04:15:08;;;;;;;6.40;3.60;;;;;;;9.42;82.09;97307.59;5056602;28;20135;-61
2021/11/03 04:17:33;;;;;;;7.53;3.90;;;;;;;9.45;81.46;97303.06;5052008;28;20037;-60
2021/11/03 04:19:58;;;;;;;7.47;3.80;;;;;;;9.30;82.16;97274.44;5060073;28;20157;-61
2021/11/03 04:22:24;;;;;;;6.38;3.55;;;;;;;9.46;82.68;97294.31;5053926;28;20103;-61
2021/11/03 04:24:49;;;;;;;6.35;3.40;;;;;;;9.48;83.83;97302.72;5052003;28;20040;-60
2021/11/03 04:27:15;;;;;;;7.18;4.20;;;;;;;9.51;84.17;97307.56;5054948;28;20032;-60
2021/11/03 04:29:40;;;;;;;8.23;4.07;;;;;;;9.41;85.39;97293.00;5042802;28;20552;-61
2021/11/03 04:32:06;;;;;;;7.13;4.18;;;;;;;9.34;86.10;97301.63;5056266;28;20036;-61
2021/11/03 04:34:31;;;;;;;6.97;4.10;;;;;;;9.41;86.10;97298.19;5056169;28;20040;-60
2021/11/03 04:36:56;;;;;;;6.65;4.20;;;;;;;9.47;86.10;97298.50;5050964;28;20029;-61
2021/11/03 04:39:22;;;;;;;10.75;5.10;;;;;;;9.47;86.77;97298.50;5058634;28;20036;-61
2021/11/03 04:41:47;;;;;;;9.38;5.70;;;;;;;9.49;87.11;97288.75;5052715;28;20442;-60
2021/11/03 04:44:13;;;;;;;8.90;5.68;;;;;;;9.11;87.28;97222.00;5054052;28;20443;-60
2021/11/03 04:46:39;;;;;;;8.85;5.72;;;;;;;9.40;88.02;97280.19;5050347;28;20098;-60
2021/11/03 04:49:04;;;;;;;10.25;6.82;;;;;;;9.41;87.85;97276.63;5050910;28;20048;-60
2021/11/03 04:51:29;;;;;;;11.45;6.68;;;;;;;9.41;88.44;97255.88;5042127;28;20407;-60
2021/11/03 04:53:55;;;;;;;10.32;6.82;;;;;;;9.29;87.60;97229.53;5052611;28;20047;-63
2021/11/03 04:56:22;;;;;;;14.70;7.20;;;;;;;9.55;87.68;97272.53;5056131;28;20133;-60
2021/11/03 04:58:49;;;;;;;10.80;6.95;;;;;;;9.45;87.99;97270.13;5037671;28;20033;-60
2021/11/03 05:01:15;;;;;;;10.68;6.68;;;;;;;9.53;88.20;97264.09;5053769;28;20024;-60
2021/11/03 05:03:40;;;;;;;10.50;6.03;;;;;;;9.55;87.00;97259.56;5057459;28;20116;-60
2021/11/03 05:06:07;;;;;;;10.13;6.63;;;;;;;9.56;88.07;97267.13;5055136;28;20104;-60
2021/11/03 05:08:32;;;;;;;12.07;6.18;;;;;;;9.54;88.20;97261.31;5059663;28;20036;-59
2021/11/03 05:10:58;;;;;;;8.80;5.55;;;;;;;9.50;88.75;97256.66;5052850;28;20076;-60
2021/11/03 05:13:23;;;;;;;10.20;6.65;;;;;;;9.43;88.83;97244.34;5060809;28;20601;-61
2021/11/03 05:15:51;;;;;;;12.18;7.03;;;;;;;9.53;88.89;97241.56;5053252;28;20425;-62
2021/11/03 05:18:17;;;;;;;10.15;5.93;;;;;;;9.43;89.73;97221.00;5058155;28;20735;-61
2021/11/03 05:20:43;;;;;;;9.85;6.60;;;;;;;9.37;90.40;97231.28;5056445;28;20025;-59
2021/11/03 05:23:08;;;;;;;8.77;5.28;;;;;;;9.41;89.17;97242.91;5055242;28;20119;-60
2021/11/03 05:25:33;;;;;;;8.20;5.38;;;;;;;9.36;90.16;97243.44;5056667;28;20111;-60
2021/11/03 05:27:59;;;;;;;10.60;6.20;;;;;;;9.30;90.69;97238.91;5046280;28;20486;-62
2021/11/03 05:30:27;;;;;;;10.00;5.90;;;;;;;9.33;91.32;97232.59;5050540;28;20036;-60
2021/11/03 05:32:53;;;;;;;9.48;5.90;;;;;;;9.38;91.70;97238.88;5040418;28;20059;-61
2021/11/03 05:35:19;;;;;;;22.05;7.30;;;;;;;9.50;90.97;97233.31;5053446;28;20842;-59
2021/11/03 05:37:45;;;;;;;10.95;5.65;;;;;;;9.09;90.99;97186.81;5039690;28;20021;-59
2021/11/03 05:40:15;;;;;;;8.60;5.10;;;;;;;9.24;90.76;97229.22;5063624;28;20094;-61
2021/11/03 05:42:40;;;;;;;9.05;4.93;;;;;;;9.21;90.21;97230.34;5046571;28;20035;-62
2021/11/03 05:45:06;;;;;;;8.55;4.82;;;;;;;9.21;90.79;97224.38;5043974;28;20025;-62
2021/11/03 05:47:32;;;;;;;8.05;4.70;;;;;;;9.02;90.91;97197.09;5031621;28;20024;-60
2021/11/03 05:49:57;;;;;;;8.60;4.22;;;;;;;9.26;90.23;97227.28;5050953;28;20147;-61
2021/11/03 05:52:24;;;;;;;7.35;4.07;;;;;;;9.30;90.74;97231.13;5060278;28;21298;-60
2021/11/03 05:54:50;;;;;;;7.65;4.30;;;;;;;9.27;92.05;97225.47;5045584;28;20064;-60
2021/11/03 05:57:27;;;;;;;7.53;4.50;;;;;;;9.28;91.83;97219.31;5053915;28;20102;-60
2021/11/03 05:59:54;;;;;;;7.85;4.72;;;;;;;9.06;91.28;97171.63;5055687;28;20045;-60
2021/11/03 06:02:20;;;;;;;7.53;4.70;;;;;;;9.20;91.77;97194.25;5048490;28;20483;-60
2021/11/03 06:04:46;;;;;;;9.23;4.70;;;;;;;9.34;92.07;97206.47;5056548;28;20040;-61
2021/11/03 06:07:12;;;;;;;7.47;4.45;;;;;;;9.38;91.97;97205.16;5048600;28;20151;-60
2021/11/03 06:09:38;;;;;;;7.80;4.63;;;;;;;9.43;92.40;97215.00;5052641;28;20040;-60
2021/11/03 06:12:04;;;;;;;8.80;4.72;;;;;;;9.35;92.67;97205.50;5055689;28;20052;-60
2021/11/03 06:14:29;;;;;;;9.75;4.05;;;;;;;9.41;92.90;97198.81;5058333;28;20353;-60
2021/11/03 06:16:55;;;;;;;7.03;3.85;;;;;;;9.36;92.24;97214.06;5048798;28;20448;-60
2021/11/03 06:19:20;;;;;;;7.70;3.70;;;;;;;9.40;91.51;97204.97;5036045;28;20113;-59
2021/11/03 06:21:46;;;;;;;8.43;3.78;;;;;;;9.38;92.34;97206.94;5059162;28;20103;-60
2021/11/03 06:24:11;;;;;;;7.40;3.53;;;;;;;9.43;93.00;97210.63;5035933;28;20587;-62
2021/11/03 06:26:37;;;;;;;6.85;3.88;;;;;;;9.41;93.18;97216.97;5053977;28;20191;-60
2021/11/03 06:29:03;;;;;;;10.43;4.40;;;;;;;9.45;93.13;97228.59;5055658;28;20033;-61
2021/11/03 06:31:28;;;;;;;10.38;4.53;;;;;;;9.41;93.40;97222.97;5051031;28;20076;-64
2021/11/03 06:33:54;;;;;;;8.80;3.70;;;;;;;9.53;93.46;97235.56;5055650;28;20510;-61
2021/11/03 06:36:20;;;;;;;7.68;3.60;;;;;;;9.31;93.74;97221.56;5050479;28;20104;-59
2021/11/03 06:38:46;;;;;;;8.35;3.83;;;;;;;9.46;94.49;97238.03;5051058;28;20051;-58
2021/11/03 06:41:12;;;;;;;6.50;3.53;;;;;;;9.34;95.21;97231.59;5055098;28;20388;-61
2021/11/03 06:43:38;;;;;;;9.70;3.78;;;;;;;9.38;95.36;97249.25;5054363;28;20048;-62
2021/11/03 06:46:04;;;;;;;11.10;5.47;;;;;;;9.40;94.77;97241.28;5052723;28;20079;-60
2021/11/03 06:48:29;;;;;;;10.15;5.75;;;;;;;9.52;94.32;97241.72;5053074;28;20033;-59
2021/11/03 06:50:55;;;;;;;12.48;5.03;;;;;;;9.54;94.58;97237.97;5037830;28;20025;-61
2021/11/03 06:53:25;;;;;;;9.85;4.55;;;;;;;9.56;95.19;97241.19;5044738;28;20106;-60
2021/11/03 06:55:52;;;;;;;8.07;4.05;;;;;;;9.50;95.53;97226.31;5062192;28;20013;-61
2021/11/03 06:58:18;;;;;;;7.85;4.07;;;;;;;9.42;96.71;97231.56;5045066;28;20036;-63
2021/11/03 07:00:46;;;;;;;8.10;4.13;;;;;;;9.47;97.22;97237.03;5043645;28;20024;-60
2021/11/03 07:03:12;;;;;;;10.60;4.50;;;;;;;9.52;98.08;97236.53;5051339;28;20531;-63
2021/11/03 07:05:42;;;;;;;9.75;3.95;;;;;;;9.26;97.45;97201.34;5050463;28;20025;-62
2021/11/03 07:08:09;;;;;;;7.68;3.85;;;;;;;9.42;97.37;97234.97;5044564;28;20029;-62
2021/11/03 07:10:41;;;;;;;7.32;2.88;;;;;;;9.37;96.54;97241.66;5034522;28;20028;-60
2021/11/03 07:13:08;;;;;;;6.57;3.28;;;;;;;9.47;97.10;97250.00;5052036;28;20053;-65
2021/11/03 07:15:34;;;;;;;7.45;3.22;;;;;;;9.51;97.83;97259.09;5049900;28;20031;-62
2021/11/03 07:18:00;;;;;;;10.48;3.60;;;;;;;9.45;98.79;97251.97;5032628;28;20036;-62
2021/11/03 07:20:26;;;;;;;8.70;3.40;;;;;;;9.48;98.85;97243.84;5065728;28;20102;-62
2021/11/03 07:22:51;;;;;;;10.65;3.53;;;;;;;9.35;98.79;97243.59;5052153;28;20455;-61
2021/11/03 07:25:20;;;;;;;8.40;3.33;;;;;;;9.27;98.55;97234.06;5060195;28;20670;-61
2021/11/03 07:27:47;;;;;;;8.88;2.95;;;;;;;9.06;99.37;97197.56;5050171;28;20029;-61
2021/11/03 07:30:14;;;;;;;6.38;2.80;;;;;;;9.29;99.57;97249.44;5051573;28;20091;-60
2021/11/03 07:32:40;;;;;;;7.32;3.45;;;;;;;9.29;100.00;97229.53;5056342;28;20275;-60
2021/11/03 07:35:05;;;;;;;9.43;5.75;;;;;;;9.37;100.00;97239.06;5050305;28;20099;-61
2021/11/03 07:37:31;;;;;;;11.10;4.05;;;;;;;9.18;100.00;97235.06;5051958;28;20083;-62
2021/11/03 07:39:56;;;;;;;5.82;3.15;;;;;;;9.22;100.00;97224.19;5048499;28;20028;-63
2021/11/03 07:42:21;;;;;;;8.68;3.78;;;;;;;9.18;100.00;97217.75;5042033;28;20557;-60
2021/11/03 07:44:47;;;;;;;11.00;4.88;;;;;;;9.15;100.00;97233.63;5052967;28;20036;-61
2021/11/03 07:47:13;;;;;;;8.93;4.57;;;;;;;9.04;100.00;97228.84;5046139;28;20029;-61
2021/11/03 07:49:38;;;;;;;8.60;4.43;;;;;;;9.12;100.00;97244.34;5048593;28;20502;-61
2021/11/03 07:52:04;;;;;;;8.02;3.50;;;;;;;9.13;100.00;97229.59;5052434;28;20120;-61
2021/11/03 07:54:30;;;;;;;8.07;3.15;;;;;;;8.95;100.00;97198.72;5053364;28;20080;-61
2021/11/03 07:56:55;;;;;;;6.03;2.58;;;;;;;8.70;99.40;97159.94;5047764;28;20131;-61
2021/11/03 07:59:21;;;;;;;7.72;2.67;;;;;;;9.09;98.83;97223.94;5038404;28;20036;-60
2021/11/03 08:01:46;;;;;;;9.25;3.15;;;;;;;8.78;99.72;97175.47;5039808;28;20079;-62
2021/11/03 08:04:12;;;;;;;7.80;2.42;;;;;;;9.11;99.55;97203.84;5052713;28;20037;-61
2021/11/03 08:06:39;;;;;;;6.55;2.60;;;;;;;9.10;99.85;97201.41;5057213;28;20107;-61
2021/11/03 08:09:06;;;;;;;6.57;2.92;;;;;;;8.99;100.00;97194.81;5059371;28;20096;-60
2021/11/03 08:11:45;;;;;;;7.45;2.70;;;;;;;8.83;100.00;97172.38;5054404;28;20033;-64
2021/11/03 08:14:10;;;;;;;5.78;2.25;;;;;;;9.14;100.00;97195.69;5065048;28;20021;-61
2021/11/03 08:17:02;;;;;;;7.47;2.60;;;;;;;8.97;100.00;97157.88;5042610;28;20043;-63
2021/11/03 08:19:32;;;;;;;7.13;2.80;;;;;;;9.26;100.00;97209.13;5041931;28;20885;-62
2021/11/03 08:21:58;;;;;;;5.65;2.70;;;;;;;9.14;100.00;97207.88;5069811;28;20025;-62
2021/11/03 08:24:24;;;;;;;5.40;2.60;;;;;;;9.22;100.00;97213.03;5047396;28;20027;-61
2021/11/03 08:26:51;;;;;;;6.47;2.35;;;;;;;9.20;99.97;97207.22;5050412;28;20040;-59
2021/11/03 08:29:17;;;;;;;5.88;2.35;;;;;;;9.31;100.00;97204.22;5049164;28;20026;-60
2021/11/03 08:31:43;;;;;;;7.15;2.75;;;;;;;9.43;100.00;97204.63;5049773;28;20379;-61
2021/11/03 08:34:09;;;;;;;6.80;2.58;;;;;;;9.45;100.00;97223.41;5057741;28;20127;-61
2021/11/03 08:36:35;;;;;;;7.05;2.70;;;;;;;9.29;99.58;97202.75;5046317;28;20036;-61
2021/11/03 08:39:02;;;;;;;5.38;2.28;;;;;;;9.30;100.00;97205.19;5053466;28;20040;-59
2021/11/03 08:41:27;;;;;;;5.40;2.13;;;;;;;9.38;100.00;97209.53;5048273;28;20138;-59
2021/11/03 08:43:53;;;;;;;6.15;2.45;;;;;;;9.46;100.00;97211.28;5059216;28;20475;-61
2021/11/03 08:46:19;;;;;;;5.45;2.25;;;;;;;9.41;100.00;97202.19;5050298;28;20029;-60
2021/11/03 08:48:44;;;;;;;8.02;2.00;;;;;;;9.49;99.43;97191.00;5041204;28;20498;-61
2021/11/03 08:51:09;;;;;;;7.55;2.40;;;;;;;9.53;100.00;97181.88;5048670;28;20039;-60
2021/11/03 08:53:35;;;;;;;5.05;1.85;;;;;;;9.56;99.24;97181.50;5054712;28;20029;-59
2021/11/03 08:56:01;;;;;;;5.75;1.40;;;;;;;9.55;97.27;97143.56;5055860;28;20105;-60
2021/11/03 08:58:28;;;;;;;6.13;1.85;;;;;;;9.86;98.02;97167.84;5054138;28;20127;-61
2021/11/03 09:00:54;;;;;;;3.50;1.05;;;;;;;9.92;92.30;97117.81;5040343;28;20016;-61
2021/11/03 09:03:20;;;;;;;3.60;0.90;;;;;;;10.46;91.16;97146.19;5055104;28;20051;-61
2021/11/03 09:05:46;;;;;;;4.90;1.02;;;;;;;10.51;91.79;97162.03;5050617;28;20029;-61
2021/11/03 09:08:14;;;;;;;3.55;1.00;;;;;;;10.37;92.54;97147.25;5057833;28;20056;-64
2021/11/03 09:10:48;;;;;;;3.40;0.90;;;;;;;10.38;92.05;97128.88;5069952;28;20526;-65
2021/11/03 09:13:20;;;;;;;4.93;1.10;;;;;;;10.22;91.68;97081.47;5039889;28;20036;-61
2021/11/03 09:15:45;;;;;;;4.57;0.90;;;;;;;10.64;90.05;97132.00;5054381;28;20074;-62
2021/11/03 09:18:12;;;;;;;5.85;1.20;;;;;;;10.62;91.56;97154.75;5051904;28;20124;-62
2021/11/03 09:20:40;;;;;;;3.25;0.90;;;;;;;10.50;90.12;97125.84;5040623;28;20055;-60
2021/11/03 09:23:06;;;;;;;3.10;0.90;;;;;;;10.60;91.57;97146.34;5063974;28;20111;-61
2021/11/03 09:25:31;;;;;;;3.20;0.90;;;;;;;10.32;92.79;97137.38;5038474;28;20040;-62
2021/11/03 09:27:57;;;;;;;4.88;0.95;;;;;;;10.40;92.85;97141.69;5041076;28;20035;-60
2021/11/03 09:30:24;;;;;;;2.92;0.90;;;;;;;10.52;90.27;97123.84;5039778;28;20024;-61
2021/11/03 09:32:53;;;;;;;3.20;0.98;;;;;;;10.22;92.32;97091.84;5038767;28;20467;-60
2021/11/03 09:35:19;;;;;;;4.85;1.20;;;;;;;10.51;92.12;97135.22;5051773;28;20064;-60
2021/11/03 09:37:44;;;;;;;5.10;0.85;;;;;;;10.67;89.87;97119.44;5040543;28;20039;-61
2021/11/03 09:40:23;;;;;;;5.95;1.17;;;;;;;10.92;86.25;97130.34;5040124;28;20029;-61
2021/11/03 09:42:48;;;;;;;5.80;1.00;;;;;;;10.89;88.75;97116.91;5056133;28;20042;-61
2021/11/03 09:45:24;;;;;;;2.95;0.80;;;;;;;11.13;84.76;97119.16;5055672;28;20103;-60
2021/11/03 09:48:10;;;;;;;4.32;0.85;;;;;;;11.37;81.75;97124.97;5043371;28;20021;-63
2021/11/03 09:50:39;;;;;;;2.80;0.70;;;;;;;11.49;81.17;97118.28;5050034;28;20054;-61
2021/11/03 09:53:32;;;;;;;4.45;0.70;;;;;;;11.60;79.00;97135.22;5038209;28;20031;-61
2021/11/03 09:55:58;;;;;;;2.95;0.80;;;;;;;11.45;82.68;97124.06;5033781;28;20048;-60
2021/11/03 09:58:48;;;;;;;6.20;0.98;;;;;;;11.13;83.05;97079.31;5058292;28;20115;-61
2021/11/03 10:01:29;;;;;;;4.50;1.00;;;;;;;11.44;82.82;97114.63;5051333;28;20115;-60
2021/11/03 10:04:07;;;;;;;2.75;0.75;;;;;;;11.56;79.83;97120.97;5053458;28;20122;-61
2021/11/03 10:06:52;;;;;;;3.65;0.77;;;;;;;11.61;80.16;97130.81;5046941;28;20127;-63
2021/11/03 10:09:17;;;;;;;3.65;0.93;;;;;;;11.48;81.64;97127.09;5055432;28;20064;-61
2021/11/03 10:11:46;;;;;;;2.70;0.80;;;;;;;11.63;78.98;97121.81;5031713;28;20365;-61
2021/11/03 10:14:12;;;;;;;2.83;0.70;;;;;;;11.24;79.55;97058.00;5056335;28;20025;-61
2021/11/03 10:17:03;;;;;;;3.38;0.80;;;;;;;11.67;77.23;97111.84;5035826;28;20029;-60
2021/11/03 10:19:37;;;;;;;2.65;0.60;;;;;;;11.70;76.11;97098.44;5046493;28;20128;-61
2021/11/03 10:22:33;;;;;;;1.98;0.40;;;;;;;11.81;74.58;97100.53;5070689;28;20115;-60
2021/11/03 10:25:03;;;;;;;2.80;0.80;;;;;;;11.73;77.65;97095.47;5046461;28;20032;-60
2021/11/03 10:27:29;;;;;;;3.40;0.70;;;;;;;11.79;76.08;97086.91;5054488;28;20036;-63
2021/11/03 10:30:14;;;;;;;3.55;0.80;;;;;;;11.68;79.14;97084.78;5045618;28;20033;-61
2021/11/03 10:32:42;;;;;;;3.15;0.77;;;;;;;11.71;77.07;97079.22;5045866;28;20265;-60
2021/11/03 10:35:07;;;;;;;4.05;0.90;;;;;;;11.27;78.93;97052.44;5044386;28;20020;-61
2021/11/03 10:37:37;;;;;;;3.67;0.70;;;;;;;11.60;76.86;97082.34;5055284;28;20036;-58
2021/11/03 10:40:27;;;;;;;2.88;0.57;;;;;;;11.74;74.89;97084.06;5046842;28;20476;-59
2021/11/03 10:43:01;;;;;;;1.90;0.60;;;;;;;11.64;76.59;97079.16;5040869;28;20052;-58
2021/11/03 10:45:36;;;;;;;2.70;0.70;;;;;;;11.63;76.49;97074.16;5035505;28;20024;-59
2021/11/03 10:48:10;;;;;;;3.25;0.77;;;;;;;11.65;76.93;97086.00;5054772;28;20028;-59
2021/11/03 10:50:49;;;;;;;2.90;0.60;;;;;;;11.54;78.19;97079.50;5049390;28;20837;-60
2021/11/03 10:53:19;;;;;;;4.18;0.68;;;;;;;11.59;74.64;97065.09;5034058;28;20964;-60
2021/11/03 10:55:57;;;;;;;2.95;0.60;;;;;;;11.62;74.71;97047.31;5044879;28;20123;-60
2021/11/03 10:58:24;;;;;;;3.15;0.70;;;;;;;11.65;75.85;97051.34;5039087;28;20071;-59
2021/11/03 11:01:12;;;;;;;3.47;0.70;;;;;;;11.61;76.32;97047.50;5037597;28;20482;-59
2021/11/03 11:03:56;;;;;;;4.70;0.85;;;;;;;11.46;80.32;97040.59;5053446;28;20021;-60
2021/11/03 11:06:46;;;;;;;3.95;0.85;;;;;;;11.19;83.16;97044.78;5051689;28;20123;-60
2021/11/03 11:09:26;;;;;;;4.93;0.80;;;;;;;11.18;81.90;97037.16;5036843;28;20484;-60
2021/11/03 11:12:01;;;;;;;3.45;0.70;;;;;;;11.06;82.59;97048.06;5051147;28;20058;-61
2021/11/03 11:14:31;;;;;;;3.03;0.70;;;;;;;11.06;81.72;97037.66;5037594;28;20098;-59
2021/11/03 11:17:01;;;;;;;;;;;;;;;10.94;85.29;97034.75;5044388;28;20020;-61
2021/11/03 11:19:38;;;;;;;2.88;0.80;;;;;;;10.83;87.81;97024.84;5044060;28;19955;-60
2021/11/03 11:22:13;;;;;;;1.67;0.50;;;;;;;10.93;81.80;96998.50;5032001;28;20114;-60
2021/11/03 11:24:50;;;;;;;4.28;1.00;;;;;;;10.99;83.63;97016.00;5049946;28;20082;-59
2021/11/03 11:27:28;;;;;;;2.88;0.60;;;;;;;10.88;83.29;97006.88;5046687;28;20044;-59
2021/11/03 11:30:16;;;;;;;2.75;0.88;;;;;;;10.88;85.17;97009.50;5043576;28;20040;-59
2021/11/03 11:32:56;;;;;;;3.55;0.90;;;;;;;10.82;86.02;97001.63;5052320;28;20027;-60
2021/11/03 11:35:28;;;;;;;3.65;0.65;;;;;;;10.49;85.46;96961.28;5058022;28;20032;-60
2021/11/03 11:38:02;;;;;;;2.17;0.70;;;;;;;10.72;85.34;97000.13;5059500;28;20534;-60
2021/11/03 11:40:45;;;;;;;1.95;0.60;;;;;;;10.91;83.54;97011.69;5058379;28;20040;-59
2021/11/03 11:43:37;;;;;;;2.30;0.57;;;;;;;10.79;84.36;96992.41;5048781;28;20033;-60
2021/11/03 11:46:16;;;;;;;2.25;0.57;;;;;;;10.96;82.70;97005.94;4987314;28;20032;-60